createdAt,value
2018-07-14T00:00:45.023Z,0.00
2018-07-14T00:01:44.980Z,0.00
2018-07-14T00:02:44.974Z,0.00
2018-07-14T00:03:44.962Z,0.00
2018-07-14T00:04:44.948Z,0.00
2018-07-14T00:05:44.958Z,0.00
2018-07-14T00:06:44.925Z,0.00
2018-07-14T00:07:44.916Z,0.00
2018-07-14T00:08:44.906Z,0.00
2018-07-14T00:09:44.892Z,0.00
2018-07-14T00:10:44.904Z,0.00
2018-07-14T00:11:44.885Z,0.00
2018-07-14T00:12:44.858Z,0.00
2018-07-14T00:13:44.849Z,0.00
2018-07-14T00:14:44.844Z,0.00
2018-07-14T00:15:44.852Z,0.00
2018-07-14T00:16:44.813Z,0.00
2018-07-14T00:17:44.803Z,0.00
2018-07-14T00:18:44.791Z,0.00
2018-07-14T00:19:44.782Z,0.00
2018-07-14T00:20:44.772Z,0.00
2018-07-14T00:21:44.778Z,0.00
2018-07-14T00:22:44.770Z,0.00
2018-07-14T00:23:44.746Z,0.00
2018-07-14T00:24:44.725Z,0.00
2018-07-14T00:25:44.714Z,0.00
2018-07-14T00:26:44.754Z,0.00
2018-07-14T00:27:44.717Z,0.00
2018-07-14T00:28:44.687Z,0.00
2018-07-14T00:29:44.669Z,0.00
2018-07-14T00:30:44.659Z,0.00
2018-07-14T00:31:44.650Z,0.00
2018-07-14T00:32:44.640Z,0.00
2018-07-14T00:33:44.655Z,0.00
2018-07-14T00:34:44.640Z,0.00
2018-07-14T00:35:44.606Z,0.00
2018-07-14T00:36:44.594Z,0.00
2018-07-14T00:37:44.582Z,0.00
2018-07-14T00:38:44.601Z,0.00
2018-07-14T00:39:44.563Z,0.00
2018-07-14T00:40:44.550Z,0.00
2018-07-14T00:41:44.541Z,0.00
2018-07-14T00:42:44.530Z,0.00
2018-07-14T00:43:44.516Z,0.00
2018-07-14T00:44:44.536Z,0.00
2018-07-14T00:45:44.518Z,0.00
2018-07-14T00:46:44.495Z,0.00
2018-07-14T00:47:44.478Z,0.00
2018-07-14T00:48:44.466Z,0.00
2018-07-14T00:49:44.452Z,0.00
2018-07-14T00:50:44.460Z,0.00
2018-07-14T00:51:44.431Z,0.00
2018-07-14T00:52:44.422Z,0.00
2018-07-14T00:53:44.425Z,0.00
2018-07-14T00:54:44.400Z,0.00
2018-07-14T00:55:44.412Z,0.00
2018-07-14T00:56:44.413Z,0.00
2018-07-14T00:57:44.368Z,0.00
2018-07-14T00:58:44.359Z,0.00
2018-07-14T00:59:44.349Z,0.00
2018-07-14T01:00:44.356Z,0.00
2018-07-14T01:01:44.333Z,0.00
2018-07-14T01:02:44.334Z,0.00
2018-07-14T01:03:44.308Z,0.00
2018-07-14T01:04:44.292Z,0.00
2018-07-14T01:05:44.281Z,0.00
2018-07-14T01:06:44.337Z,0.00
2018-07-14T01:07:44.262Z,0.00
2018-07-14T01:08:44.258Z,0.00
2018-07-14T01:09:44.244Z,0.00
2018-07-14T01:10:44.248Z,0.00
2018-07-14T01:11:44.214Z,0.00
2018-07-14T01:12:44.223Z,0.00
2018-07-14T01:13:44.204Z,0.00
2018-07-14T01:14:44.185Z,0.00
2018-07-14T01:15:44.182Z,0.00
2018-07-14T01:16:44.161Z,0.00
2018-07-14T01:17:44.228Z,0.00
2018-07-14T01:18:44.140Z,0.00
2018-07-14T01:19:44.145Z,0.00
2018-07-14T01:20:44.122Z,0.00
2018-07-14T01:21:44.124Z,0.00
2018-07-14T01:22:44.127Z,0.00
2018-07-14T01:23:44.093Z,0.00
2018-07-14T01:24:44.076Z,0.00
2018-07-14T01:25:44.070Z,0.00
2018-07-14T01:26:44.053Z,0.00
2018-07-14T01:27:44.043Z,0.00
2018-07-14T01:28:44.062Z,0.00
2018-07-14T01:29:44.026Z,0.00
2018-07-14T01:30:44.006Z,0.00
2018-07-14T01:31:44.004Z,0.00
2018-07-14T01:32:43.992Z,0.00
2018-07-14T01:33:43.981Z,0.00
2018-07-14T01:34:43.980Z,0.00
2018-07-14T01:35:43.954Z,0.00
2018-07-14T01:36:43.945Z,0.00
2018-07-14T01:37:43.932Z,0.00
2018-07-14T01:38:43.923Z,0.00
2018-07-14T01:39:43.936Z,0.00
2018-07-14T01:40:44.079Z,0.00
2018-07-14T01:41:43.899Z,0.00
2018-07-14T01:42:43.873Z,0.00
2018-07-14T01:43:43.870Z,0.00
2018-07-14T01:44:43.857Z,0.00
2018-07-14T01:45:43.863Z,0.00
2018-07-14T01:46:43.830Z,0.00
2018-07-14T01:47:43.825Z,0.00
2018-07-14T01:48:43.814Z,0.00
2018-07-14T01:49:43.807Z,0.00
2018-07-14T01:50:43.811Z,0.00
2018-07-14T01:51:43.777Z,0.00
2018-07-14T01:52:43.766Z,0.00
2018-07-14T01:53:43.759Z,0.00
2018-07-14T01:54:43.770Z,0.00
2018-07-14T01:55:43.744Z,0.00
2018-07-14T01:56:43.746Z,0.00
2018-07-14T01:57:43.714Z,0.00
2018-07-14T01:58:43.698Z,0.00
2018-07-14T01:59:43.688Z,0.00
2018-07-14T02:00:43.678Z,0.00
2018-07-14T02:01:43.669Z,0.00
2018-07-14T02:02:43.675Z,0.00
2018-07-14T02:03:43.643Z,0.00
2018-07-14T02:04:43.634Z,0.00
2018-07-14T02:05:43.658Z,0.00
2018-07-14T02:06:43.611Z,0.00
2018-07-14T02:07:43.618Z,0.00
2018-07-14T02:08:43.595Z,0.00
2018-07-14T02:09:43.579Z,0.00
2018-07-14T02:10:43.583Z,0.00
2018-07-14T02:11:43.557Z,0.00
2018-07-14T02:12:43.569Z,0.00
2018-07-14T02:13:43.538Z,0.00
2018-07-14T02:14:43.536Z,0.00
2018-07-14T02:15:43.518Z,0.00
2018-07-14T02:16:43.501Z,0.00
2018-07-14T02:17:43.491Z,0.00
2018-07-14T02:18:43.513Z,0.00
2018-07-14T02:19:43.465Z,0.00
2018-07-14T02:20:43.467Z,0.00
2018-07-14T02:21:43.447Z,0.00
2018-07-14T02:22:43.434Z,0.00
2018-07-14T02:23:43.448Z,0.00
2018-07-14T02:24:43.414Z,0.00
2018-07-14T02:25:43.399Z,0.00
2018-07-14T02:26:43.392Z,0.00
2018-07-14T02:27:43.380Z,0.00
2018-07-14T02:28:43.366Z,0.00
2018-07-14T02:29:43.375Z,0.00
2018-07-14T02:30:43.351Z,0.00
2018-07-14T02:31:43.361Z,0.00
2018-07-14T02:32:43.328Z,0.00
2018-07-14T02:33:43.313Z,0.00
2018-07-14T02:34:43.339Z,0.00
2018-07-14T02:35:43.296Z,0.00
2018-07-14T02:36:43.278Z,0.00
2018-07-14T02:37:43.272Z,0.00
2018-07-14T02:38:43.286Z,0.00
2018-07-14T02:39:43.245Z,0.00
2018-07-14T02:40:43.252Z,0.00
2018-07-14T02:41:43.237Z,0.00
2018-07-14T02:42:43.212Z,0.00
2018-07-14T02:43:43.211Z,0.00
2018-07-14T02:44:43.191Z,0.00
2018-07-14T02:45:43.212Z,0.00
2018-07-14T02:46:43.175Z,0.00
2018-07-14T02:47:43.158Z,0.00
2018-07-14T02:48:43.145Z,0.00
2018-07-14T02:49:43.138Z,0.00
2018-07-14T02:50:43.142Z,0.00
2018-07-14T02:51:43.167Z,0.00
2018-07-14T02:52:43.111Z,0.00
2018-07-14T02:53:43.094Z,0.00
2018-07-14T02:54:43.091Z,0.00
2018-07-14T02:55:43.080Z,0.00
2018-07-14T02:56:43.088Z,4.00
2018-07-14T02:57:43.049Z,4.00
2018-07-14T02:58:43.043Z,0.00
2018-07-14T02:59:43.081Z,0.00
2018-07-14T03:00:43.019Z,4.00
2018-07-14T03:01:43.003Z,4.00
2018-07-14T03:02:43.023Z,4.00
2018-07-14T03:03:42.979Z,8.00
2018-07-14T03:04:42.981Z,4.00
2018-07-14T03:05:42.958Z,4.00
2018-07-14T03:06:42.945Z,4.00
2018-07-14T03:07:42.936Z,8.00
2018-07-14T03:08:42.945Z,8.00
2018-07-14T03:09:42.913Z,12.00
2018-07-14T03:10:42.904Z,12.00
2018-07-14T03:11:42.900Z,12.00
2018-07-14T03:12:42.884Z,16.00
2018-07-14T03:13:42.891Z,16.00
2018-07-14T03:14:42.858Z,20.00
2018-07-14T03:15:42.846Z,24.00
2018-07-14T03:16:42.837Z,28.00
2018-07-14T03:17:42.840Z,32.00
2018-07-14T03:18:42.839Z,32.00
2018-07-14T03:19:42.803Z,36.00
2018-07-14T03:20:42.789Z,44.00
2018-07-14T03:21:42.780Z,48.00
2018-07-14T03:22:42.775Z,52.00
2018-07-14T03:23:42.766Z,56.00
2018-07-14T03:24:42.774Z,64.00
2018-07-14T03:25:42.736Z,68.00
2018-07-14T03:26:42.723Z,76.00
2018-07-14T03:27:42.754Z,80.00
2018-07-14T03:28:42.701Z,88.00
2018-07-14T03:29:42.690Z,96.00
2018-07-14T03:30:42.700Z,108.00
2018-07-14T03:31:42.671Z,116.00
2018-07-14T03:32:42.658Z,128.00
2018-07-14T03:33:42.646Z,140.00
2018-07-14T03:34:42.639Z,148.00
2018-07-14T03:35:42.650Z,160.00
2018-07-14T03:36:42.673Z,176.00
2018-07-14T03:37:42.604Z,184.00
2018-07-14T03:38:42.591Z,196.00
2018-07-14T03:39:42.584Z,212.00
2018-07-14T03:40:42.607Z,228.00
2018-07-14T03:41:42.583Z,240.00
2018-07-14T03:42:42.546Z,260.00
2018-07-14T03:43:42.539Z,272.00
2018-07-14T03:44:42.525Z,288.00
2018-07-14T03:45:42.513Z,308.00
2018-07-14T03:46:42.528Z,324.00
2018-07-14T03:47:42.489Z,340.00
2018-07-14T03:48:42.480Z,360.00
2018-07-14T03:49:42.470Z,380.00
2018-07-14T03:50:42.479Z,404.00
2018-07-14T03:51:42.447Z,424.00
2018-07-14T03:52:42.452Z,444.00
2018-07-14T03:53:42.425Z,464.00
2018-07-14T03:54:42.412Z,488.00
2018-07-14T03:55:42.401Z,508.00
2018-07-14T03:56:42.392Z,532.00
2018-07-14T03:57:42.398Z,556.00
2018-07-14T03:58:42.371Z,576.00
2018-07-14T03:59:42.361Z,604.00
2018-07-14T04:00:42.348Z,628.00
2018-07-14T04:01:42.336Z,652.00
2018-07-14T04:02:42.344Z,680.00
2018-07-14T04:03:42.324Z,712.00
2018-07-14T04:04:42.302Z,744.00
2018-07-14T04:05:42.295Z,776.00
2018-07-14T04:06:42.284Z,812.00
2018-07-14T04:07:42.273Z,848.00
2018-07-14T04:08:42.286Z,884.00
2018-07-14T04:09:42.246Z,920.00
2018-07-14T04:10:42.233Z,964.00
2018-07-14T04:11:42.228Z,1008.00
2018-07-14T04:12:42.211Z,1048.00
2018-07-14T04:13:42.246Z,1092.00
2018-07-14T04:14:42.238Z,1136.00
2018-07-14T04:15:42.180Z,1188.00
2018-07-14T04:16:42.168Z,1232.00
2018-07-14T04:17:42.157Z,1288.00
2018-07-14T04:18:42.149Z,1352.00
2018-07-14T04:19:42.152Z,1404.00
2018-07-14T04:20:42.130Z,1444.00
2018-07-14T04:21:42.112Z,1500.00
2018-07-14T04:22:42.101Z,1552.00
2018-07-14T04:23:42.092Z,1612.00
2018-07-14T04:24:42.125Z,1672.00
2018-07-14T04:25:42.072Z,1736.00
2018-07-14T04:26:42.078Z,1812.00
2018-07-14T04:27:42.048Z,2000.00
2018-07-14T04:28:42.036Z,2280.00
2018-07-14T04:29:42.029Z,2564.00
2018-07-14T04:30:42.030Z,2784.00
2018-07-14T04:31:42.055Z,2916.00
2018-07-14T04:32:41.991Z,2988.00
2018-07-14T04:33:41.979Z,3120.00
2018-07-14T04:34:41.978Z,3264.00
2018-07-14T04:35:41.985Z,3352.00
2018-07-14T04:36:41.957Z,3368.00
2018-07-14T04:37:41.935Z,3400.00
2018-07-14T04:38:41.924Z,3476.00
2018-07-14T04:39:41.924Z,3576.00
2018-07-14T04:40:41.902Z,3668.00
2018-07-14T04:41:41.906Z,3684.00
2018-07-14T04:42:41.887Z,3812.00
2018-07-14T04:43:41.868Z,3928.00
2018-07-14T04:44:41.858Z,4048.00
2018-07-14T04:45:41.849Z,4156.00
2018-07-14T04:46:41.900Z,4332.00
2018-07-14T04:47:41.827Z,4508.00
2018-07-14T04:48:41.816Z,4600.00
2018-07-14T04:49:41.823Z,4732.00
2018-07-14T04:50:41.792Z,4808.00
2018-07-14T04:51:41.780Z,4924.00
2018-07-14T04:52:41.791Z,5016.00
2018-07-14T04:53:41.771Z,5104.00
2018-07-14T04:54:41.754Z,5172.00
2018-07-14T04:55:41.738Z,5288.00
2018-07-14T04:56:41.724Z,5336.00
2018-07-14T04:57:41.714Z,5356.00
2018-07-14T04:58:41.720Z,5428.00
2018-07-14T04:59:41.695Z,5588.00
2018-07-14T05:00:41.684Z,5796.00
2018-07-14T05:01:41.679Z,5924.00
2018-07-14T05:02:41.661Z,6012.00
2018-07-14T05:03:41.677Z,6208.00
2018-07-14T05:04:41.645Z,6532.00
2018-07-14T05:05:41.630Z,6776.00
2018-07-14T05:06:41.616Z,6972.00
2018-07-14T05:07:41.604Z,7120.00
2018-07-14T05:08:41.605Z,7212.00
2018-07-14T05:09:41.602Z,7360.00
2018-07-14T05:10:41.569Z,7648.00
2018-07-14T05:11:41.560Z,7896.00
2018-07-14T05:12:41.566Z,7948.00
2018-07-14T05:13:41.537Z,7976.00
2018-07-14T05:14:41.527Z,8248.00
2018-07-14T05:15:41.532Z,8588.00
2018-07-14T05:16:41.506Z,8788.00
2018-07-14T05:17:41.497Z,9120.00
2018-07-14T05:18:41.494Z,9468.00
2018-07-14T05:19:41.486Z,9400.00
2018-07-14T05:20:41.482Z,9168.00
2018-07-14T05:21:41.459Z,9160.00
2018-07-14T05:22:41.443Z,9220.00
2018-07-14T05:23:41.434Z,9316.00
2018-07-14T05:24:41.418Z,9772.00
2018-07-14T05:25:41.409Z,11044.00
2018-07-14T05:26:41.415Z,12032.00
2018-07-14T05:27:41.384Z,12480.00
2018-07-14T05:28:41.446Z,12832.00
2018-07-14T05:29:41.362Z,13024.00
2018-07-14T05:30:41.363Z,13536.00
2018-07-14T05:31:41.342Z,13920.00
2018-07-14T05:32:41.348Z,14080.00
2018-07-14T05:33:41.332Z,14144.00
2018-07-14T05:34:41.310Z,14688.00
2018-07-14T05:35:41.312Z,15072.00
2018-07-14T05:36:41.290Z,14976.00
2018-07-14T05:37:41.313Z,15040.00
2018-07-14T05:38:41.269Z,15392.00
2018-07-14T05:39:41.255Z,15840.00
2018-07-14T05:40:41.244Z,16896.00
2018-07-14T05:41:41.235Z,18912.00
2018-07-14T05:42:41.221Z,18080.00
2018-07-14T05:43:41.237Z,16704.00
2018-07-14T05:44:41.201Z,17504.00
2018-07-14T05:45:41.190Z,17728.00
2018-07-14T05:46:41.179Z,17664.00
2018-07-14T05:47:41.169Z,18016.00
2018-07-14T05:48:41.197Z,18016.00
2018-07-14T05:49:41.147Z,17728.00
2018-07-14T05:50:41.135Z,18464.00
2018-07-14T05:51:41.130Z,19328.00
2018-07-14T05:52:41.125Z,20000.00
2018-07-14T05:53:41.104Z,20000.00
2018-07-14T05:54:41.111Z,20896.00
2018-07-14T05:55:41.084Z,21184.00
2018-07-14T05:56:41.097Z,20800.00
2018-07-14T05:57:41.061Z,21088.00
2018-07-14T05:58:41.053Z,22144.00
2018-07-14T05:59:41.065Z,22464.00
2018-07-14T06:00:41.030Z,22752.00
2018-07-14T06:01:41.017Z,23616.00
2018-07-14T06:02:41.006Z,23808.00
2018-07-14T06:03:40.996Z,23904.00
2018-07-14T06:04:40.990Z,22752.00
2018-07-14T06:05:40.996Z,23040.00
2018-07-14T06:06:40.966Z,23584.00
2018-07-14T06:07:40.985Z,24160.00
2018-07-14T06:08:40.942Z,24480.00
2018-07-14T06:09:40.938Z,25024.00
2018-07-14T06:10:40.942Z,25088.00
2018-07-14T06:11:40.910Z,25664.00
2018-07-14T06:12:40.902Z,25696.00
2018-07-14T06:13:40.894Z,25568.00
2018-07-14T06:14:40.879Z,25920.00
2018-07-14T06:15:40.875Z,26144.00
2018-07-14T06:16:40.885Z,25888.00
2018-07-14T06:17:40.848Z,26048.00
2018-07-14T06:18:40.839Z,26208.00
2018-07-14T06:19:40.891Z,26368.00
2018-07-14T06:20:40.823Z,25664.00
2018-07-14T06:21:40.808Z,25856.00
2018-07-14T06:22:40.814Z,26944.00
2018-07-14T06:23:40.786Z,27744.00
2018-07-14T06:24:40.773Z,28096.00
2018-07-14T06:25:40.763Z,28192.00
2018-07-14T06:26:40.753Z,28928.00
2018-07-14T06:27:40.757Z,30016.00
2018-07-14T06:28:40.737Z,30336.00
2018-07-14T06:29:40.722Z,30400.00
2018-07-14T06:30:40.710Z,32224.00
2018-07-14T06:31:40.698Z,31328.00
2018-07-14T06:32:40.750Z,29792.00
2018-07-14T06:33:40.677Z,31744.00
2018-07-14T06:34:40.669Z,33088.00
2018-07-14T06:35:40.657Z,32864.00
2018-07-14T06:36:40.648Z,33312.00
2018-07-14T06:37:40.638Z,33760.00
2018-07-14T06:38:40.763Z,33696.00
2018-07-14T06:39:40.619Z,33792.00
2018-07-14T06:40:40.608Z,34688.00
2018-07-14T06:41:40.596Z,34912.00
2018-07-14T06:42:40.591Z,34944.00
2018-07-14T06:43:40.607Z,36064.00
2018-07-14T06:44:40.649Z,35584.00
2018-07-14T06:45:40.554Z,36128.00
2018-07-14T06:46:40.543Z,36128.00
2018-07-14T06:47:40.534Z,34944.00
2018-07-14T06:48:40.522Z,37760.00
2018-07-14T06:49:40.528Z,39712.00
2018-07-14T06:50:40.517Z,40096.00
2018-07-14T06:51:40.496Z,39712.00
2018-07-14T06:52:40.501Z,38368.00
2018-07-14T06:53:40.477Z,37408.00
2018-07-14T06:54:40.515Z,40000.00
2018-07-14T06:55:40.452Z,40736.00
2018-07-14T06:56:40.445Z,40672.00
2018-07-14T06:57:40.429Z,40928.00
2018-07-14T06:58:40.421Z,40640.00
2018-07-14T06:59:40.419Z,42944.00
2018-07-14T07:00:40.422Z,45408.00
2018-07-14T07:01:40.387Z,46272.00
2018-07-14T07:02:40.379Z,44320.00
2018-07-14T07:03:40.371Z,44320.00
2018-07-14T07:04:40.362Z,46080.00
2018-07-14T07:05:40.367Z,45696.00
2018-07-14T07:06:40.360Z,45088.00
2018-07-14T07:07:40.331Z,46368.00
2018-07-14T07:08:40.329Z,47648.00
2018-07-14T07:09:40.338Z,48832.00
2018-07-14T07:10:40.307Z,48480.00
2018-07-14T07:11:40.318Z,47264.00
2018-07-14T07:12:40.280Z,48352.00
2018-07-14T07:13:40.277Z,48672.00
2018-07-14T07:14:40.256Z,48704.00
2018-07-14T07:15:40.263Z,49024.00
2018-07-14T07:16:40.266Z,50976.00
2018-07-14T07:17:40.233Z,51296.00
2018-07-14T07:18:40.218Z,50848.00
2018-07-14T07:19:40.208Z,51264.00
2018-07-14T07:20:40.199Z,51936.00
2018-07-14T07:21:40.206Z,52032.00
2018-07-14T07:22:40.198Z,52640.00
2018-07-14T07:23:40.167Z,52032.00
2018-07-14T07:24:40.158Z,47392.00
2018-07-14T07:25:40.171Z,45312.00
2018-07-14T07:26:40.138Z,48384.00
2018-07-14T07:27:40.141Z,54432.00
2018-07-14T07:28:40.152Z,54176.00
2018-07-14T07:29:40.112Z,53248.00
2018-07-14T07:30:40.100Z,50624.00
2018-07-14T07:31:40.104Z,50240.00
2018-07-14T07:32:40.079Z,52544.00
2018-07-14T07:33:40.093Z,54784.00
2018-07-14T07:34:40.154Z,56576.00
2018-07-14T07:35:40.094Z,54336.00
2018-07-14T07:36:40.043Z,51200.00
2018-07-14T07:37:40.030Z,52128.00
2018-07-14T07:38:40.037Z,55776.00
2018-07-14T07:39:40.041Z,57568.00
2018-07-14T07:40:40.004Z,58336.00
2018-07-14T07:41:40.025Z,59392.00
2018-07-14T07:42:39.985Z,58688.00
2018-07-14T07:43:39.975Z,55904.00
2018-07-14T07:44:39.965Z,55392.00
2018-07-14T07:45:39.980Z,57024.00
2018-07-14T07:46:39.942Z,57184.00
2018-07-14T07:47:39.940Z,57408.00
2018-07-14T07:48:39.934Z,56608.00
2018-07-14T07:49:39.911Z,56576.00
2018-07-14T07:50:39.902Z,58944.00
2018-07-14T07:51:39.913Z,60288.00
2018-07-14T07:52:39.884Z,58912.00
2018-07-14T07:53:39.881Z,57856.00
2018-07-14T07:54:39.866Z,59072.00
2018-07-14T07:55:39.859Z,58976.00
2018-07-14T07:56:39.861Z,57280.00
2018-07-14T07:57:39.839Z,58240.00
2018-07-14T07:58:39.842Z,60768.00
2018-07-14T07:59:39.825Z,61312.00
2018-07-14T08:00:39.810Z,61152.00
2018-07-14T08:01:39.843Z,59712.00
2018-07-14T08:02:39.798Z,57952.00
2018-07-14T08:03:39.787Z,58592.00
2018-07-14T08:04:39.770Z,60256.00
2018-07-14T08:05:39.796Z,61216.00
2018-07-14T08:06:39.763Z,63424.00
2018-07-14T08:07:39.773Z,63680.00
2018-07-14T08:08:39.866Z,64448.00
2018-07-14T08:09:40.682Z,65664.00
2018-07-14T08:10:39.711Z,66496.00
2018-07-14T08:11:39.729Z,63904.00
2018-07-14T08:12:39.695Z,62688.00
2018-07-14T08:13:39.736Z,63264.00
2018-07-14T08:14:39.674Z,63392.00
2018-07-14T08:15:39.667Z,66432.00
2018-07-14T08:16:39.660Z,66176.00
2018-07-14T08:17:39.654Z,66752.00
2018-07-14T08:18:39.686Z,69248.00
2018-07-14T08:19:39.628Z,66400.00
2018-07-14T08:20:39.621Z,68576.00
2018-07-14T08:21:39.624Z,68960.00
2018-07-14T08:22:39.639Z,66112.00
2018-07-14T08:23:39.593Z,66240.00
2018-07-14T08:24:39.603Z,64896.00
2018-07-14T08:25:39.578Z,66752.00
2018-07-14T08:26:39.569Z,67040.00
2018-07-14T08:27:39.585Z,66656.00
2018-07-14T08:28:39.546Z,65216.00
2018-07-14T08:29:39.553Z,65184.00
2018-07-14T08:30:39.543Z,67296.00
2018-07-14T08:31:39.528Z,70720.00
2018-07-14T08:32:39.511Z,70624.00
2018-07-14T08:33:39.503Z,69984.00
2018-07-14T08:34:39.492Z,70496.00
2018-07-14T08:35:39.500Z,72736.00
2018-07-14T08:36:39.478Z,73856.00
2018-07-14T08:37:39.466Z,70944.00
2018-07-14T08:38:39.458Z,67136.00
2018-07-14T08:39:39.452Z,66208.00
2018-07-14T08:40:39.475Z,72608.00
2018-07-14T08:41:39.448Z,77184.00
2018-07-14T08:42:39.421Z,76608.00
2018-07-14T08:43:39.466Z,67520.00
2018-07-14T08:44:39.453Z,64096.00
2018-07-14T08:45:39.392Z,65472.00
2018-07-14T08:46:39.409Z,67616.00
2018-07-14T08:47:39.376Z,70048.00
2018-07-14T08:48:39.370Z,68416.00
2018-07-14T08:49:39.358Z,70464.00
2018-07-14T08:50:39.352Z,78272.00
2018-07-14T08:51:39.367Z,74240.00
2018-07-14T08:52:39.351Z,63648.00
2018-07-14T08:53:39.324Z,71360.00
2018-07-14T08:54:39.330Z,80096.00
2018-07-14T08:55:39.307Z,72352.00
2018-07-14T08:56:39.298Z,71200.00
2018-07-14T08:57:39.318Z,72096.00
2018-07-14T08:58:39.281Z,74176.00
2018-07-14T08:59:39.275Z,75200.00
2018-07-14T09:00:39.266Z,72832.00
2018-07-14T09:01:39.263Z,75360.00
2018-07-14T09:02:39.248Z,79808.00
2018-07-14T09:03:39.284Z,79488.00
2018-07-14T09:04:39.231Z,77952.00
2018-07-14T09:05:39.223Z,78976.00
2018-07-14T09:06:39.216Z,80928.00
2018-07-14T09:07:39.208Z,84416.00
2018-07-14T09:08:39.203Z,81056.00
2018-07-14T09:09:39.221Z,79264.00
2018-07-14T09:10:39.204Z,78752.00
2018-07-14T09:11:39.203Z,79872.00
2018-07-14T09:12:39.165Z,77856.00
2018-07-14T09:13:39.154Z,77664.00
2018-07-14T09:14:39.150Z,81344.00
2018-07-14T09:15:39.154Z,82368.00
2018-07-14T09:16:39.154Z,80544.00
2018-07-14T09:17:39.548Z,77984.00
2018-07-14T09:18:39.113Z,76864.00
2018-07-14T09:19:39.126Z,75264.00
2018-07-14T09:20:39.096Z,75264.00
2018-07-14T09:21:39.091Z,79296.00
2018-07-14T09:22:39.081Z,79104.00
2018-07-14T09:23:39.074Z,81248.00
2018-07-14T09:24:39.065Z,81312.00
2018-07-14T09:25:39.094Z,82592.00
2018-07-14T09:26:39.050Z,83328.00
2018-07-14T09:27:39.042Z,81120.00
2018-07-14T09:28:39.035Z,79392.00
2018-07-14T09:29:39.025Z,80224.00
2018-07-14T09:30:39.073Z,81696.00
2018-07-14T09:31:39.070Z,83136.00
2018-07-14T09:32:39.020Z,82400.00
2018-07-14T09:33:38.993Z,84512.00
2018-07-14T09:34:38.986Z,82272.00
2018-07-14T09:35:38.978Z,78656.00
2018-07-14T09:36:38.970Z,75328.00
2018-07-14T09:37:38.979Z,75296.00
2018-07-14T09:38:38.954Z,74656.00
2018-07-14T09:39:38.945Z,78176.00
2018-07-14T09:40:39.075Z,81664.00
2018-07-14T09:41:38.931Z,80640.00
2018-07-14T09:42:38.948Z,77376.00
2018-07-14T09:43:38.915Z,75712.00
2018-07-14T09:44:38.984Z,75808.00
2018-07-14T09:45:38.898Z,77088.00
2018-07-14T09:46:38.891Z,79072.00
2018-07-14T09:47:38.941Z,78912.00
2018-07-14T09:48:39.186Z,76640.00
2018-07-14T09:49:38.865Z,78368.00
2018-07-14T09:50:38.857Z,79328.00
2018-07-14T09:51:38.859Z,80288.00
2018-07-14T09:52:38.840Z,80288.00
2018-07-14T09:53:38.835Z,82272.00
2018-07-14T09:54:38.846Z,81824.00
2018-07-14T09:55:38.826Z,81632.00
2018-07-14T09:56:38.809Z,79584.00
2018-07-14T09:57:38.804Z,81344.00
2018-07-14T09:58:38.794Z,82720.00
2018-07-14T09:59:38.817Z,79744.00
2018-07-14T10:00:38.777Z,80704.00
2018-07-14T10:01:38.771Z,80960.00
2018-07-14T10:02:38.783Z,80032.00
2018-07-14T10:03:38.753Z,82816.00
2018-07-14T10:04:38.777Z,85024.00
2018-07-14T10:05:38.753Z,84160.00
2018-07-14T10:06:38.730Z,80576.00
2018-07-14T10:07:38.752Z,80096.00
2018-07-14T10:08:38.712Z,76640.00
2018-07-14T10:09:38.707Z,75616.00
2018-07-14T10:10:38.716Z,77984.00
2018-07-14T10:11:38.690Z,78240.00
2018-07-14T10:12:38.682Z,73792.00
2018-07-14T10:13:38.684Z,75808.00
2018-07-14T10:14:38.668Z,79392.00
2018-07-14T10:15:38.671Z,79584.00
2018-07-14T10:16:38.666Z,76544.00
2018-07-14T10:17:38.831Z,74656.00
2018-07-14T10:18:38.633Z,74912.00
2018-07-14T10:19:38.647Z,75072.00
2018-07-14T10:20:38.615Z,71392.00
2018-07-14T10:21:38.651Z,69408.00
2018-07-14T10:22:38.601Z,69376.00
2018-07-14T10:23:38.594Z,71744.00
2018-07-14T10:24:38.592Z,78304.00
2018-07-14T10:25:38.870Z,78464.00
2018-07-14T10:26:38.586Z,79392.00
2018-07-14T10:27:38.577Z,78304.00
2018-07-14T10:28:38.552Z,80896.00
2018-07-14T10:29:38.544Z,85472.00
2018-07-14T10:30:38.537Z,83200.00
2018-07-14T10:31:38.529Z,82208.00
2018-07-14T10:32:38.548Z,82880.00
2018-07-14T10:33:38.563Z,83616.00
2018-07-14T10:34:38.513Z,81568.00
2018-07-14T10:35:38.501Z,83552.00
2018-07-14T10:36:38.493Z,82496.00
2018-07-14T10:37:38.484Z,82528.00
2018-07-14T10:38:38.510Z,83424.00
2018-07-14T10:39:38.613Z,81472.00
2018-07-14T10:40:38.469Z,77440.00
2018-07-14T10:41:38.458Z,75168.00
2018-07-14T10:42:38.449Z,75680.00
2018-07-14T10:43:38.458Z,80832.00
2018-07-14T10:44:38.436Z,84960.00
2018-07-14T10:45:38.427Z,79872.00
2018-07-14T10:46:38.495Z,79552.00
2018-07-14T10:47:38.410Z,79936.00
2018-07-14T10:48:38.401Z,78592.00
2018-07-14T10:49:38.425Z,81248.00
2018-07-14T10:50:38.387Z,81888.00
2018-07-14T10:51:38.619Z,80992.00
2018-07-14T10:52:38.371Z,83200.00
2018-07-14T10:53:38.365Z,81984.00
2018-07-14T10:54:38.395Z,80192.00
2018-07-14T10:55:38.423Z,75968.00
2018-07-14T10:56:38.346Z,78656.00
2018-07-14T10:57:38.339Z,79808.00
2018-07-14T10:58:38.328Z,80864.00
2018-07-14T10:59:38.483Z,86144.00
2018-07-14T11:00:38.333Z,83424.00
2018-07-14T11:01:38.364Z,81568.00
2018-07-14T11:02:38.299Z,82432.00
2018-07-14T11:03:38.581Z,80640.00
2018-07-14T11:04:38.284Z,83744.00
2018-07-14T11:05:38.303Z,85856.00
2018-07-14T11:06:38.273Z,83168.00
2018-07-14T11:07:38.407Z,83328.00
2018-07-14T11:08:38.256Z,86688.00
2018-07-14T11:09:38.247Z,86112.00
2018-07-14T11:10:38.307Z,82240.00
2018-07-14T11:11:38.338Z,80864.00
2018-07-14T11:12:38.238Z,80608.00
2018-07-14T11:13:38.219Z,77440.00
2018-07-14T11:14:38.211Z,77472.00
2018-07-14T11:15:38.206Z,76000.00
2018-07-14T11:16:38.195Z,79680.00
2018-07-14T11:17:38.233Z,78112.00
2018-07-14T11:18:38.182Z,74368.00
2018-07-14T11:19:38.229Z,62336.00
2018-07-14T11:20:38.165Z,73312.00
2018-07-14T11:21:38.206Z,71136.00
2018-07-14T11:22:38.176Z,16092.00
2018-07-14T11:23:38.288Z,13636.00
2018-07-14T11:24:38.133Z,13044.00
2018-07-14T11:25:38.164Z,13556.00
2018-07-14T11:26:38.145Z,55264.00
2018-07-14T11:27:38.107Z,83104.00
2018-07-14T11:28:38.123Z,85216.00
2018-07-14T11:29:38.093Z,84832.00
2018-07-14T11:30:38.094Z,81600.00
2018-07-14T11:31:38.085Z,80800.00
2018-07-14T11:32:38.174Z,79040.00
2018-07-14T11:33:38.059Z,74016.00
2018-07-14T11:34:38.237Z,74048.00
2018-07-14T11:35:38.043Z,73440.00
2018-07-14T11:36:38.059Z,73728.00
2018-07-14T11:37:38.091Z,66784.00
2018-07-14T11:38:38.171Z,48288.00
2018-07-14T11:39:38.058Z,21312.00
2018-07-14T11:40:38.001Z,68160.00
2018-07-14T11:41:37.992Z,67392.00
2018-07-14T11:42:37.997Z,18880.00
2018-07-14T11:43:37.976Z,70432.00
2018-07-14T11:44:37.997Z,72640.00
2018-07-14T11:45:37.972Z,76160.00
2018-07-14T11:46:38.002Z,80000.00
2018-07-14T11:47:38.073Z,79648.00
2018-07-14T11:48:37.932Z,79360.00
2018-07-14T11:49:38.013Z,63264.00
2018-07-14T11:50:37.953Z,81792.00
2018-07-14T11:51:37.953Z,61888.00
2018-07-14T11:52:37.899Z,13012.00
2018-07-14T11:53:37.891Z,18400.00
2018-07-14T11:54:37.892Z,14272.00
2018-07-14T11:55:37.873Z,14244.00
2018-07-14T11:56:37.897Z,14292.00
2018-07-14T11:57:37.855Z,14088.00
2018-07-14T11:58:37.947Z,13992.00
2018-07-14T11:59:37.837Z,13836.00
2018-07-14T12:00:37.839Z,13560.00
2018-07-14T12:01:37.896Z,13136.00
2018-07-14T12:02:37.812Z,13120.00
2018-07-14T12:03:37.836Z,13428.00
2018-07-14T12:04:37.813Z,14020.00
2018-07-14T12:05:37.783Z,14408.00
2018-07-14T12:06:37.775Z,14284.00
2018-07-14T12:07:37.777Z,14244.00
2018-07-14T12:08:37.767Z,13844.00
2018-07-14T12:09:37.745Z,13464.00
2018-07-14T12:10:37.737Z,13040.00
2018-07-14T12:11:37.724Z,12680.00
2018-07-14T12:12:37.749Z,12432.00
2018-07-14T12:13:37.707Z,12408.00